Terminal Aerodrome Forecast
Issued by NWS Wichita, KS

Home | Current Version | Previous Version | Text Only | Print | Product List | Glossary On
Versions: 1 2 3 4 5 6 7 8 9 10 11 12 13 14 15 16 17 18 19 20
000
FTUS43 KICT 071423 AAB
TAFICT
TAF AMD
KICT 071423Z 0714/0812 03012G18KT 1 1/2SM -RA SCT009 BKN015
      TEMPO 0714/0716 4SM BR SCT015 BKN025
     FM071600 02012G20KT 6SM BR VCSH BKN025 OVC100
     FM080100 06008KT P6SM VCTS OVC035CB=

USA.gov is the U.S. government's official web portal to all federal, state and local government web resources and services.